Aeroporto :
LOGIN :

Iscrizione | Disclaimer

   EN    FR    IT 

 










Sommario :    VFR   VFR Marginale   IFR   IFR Intensivo   IFR Molto Intensivo
Visibilità : 
Base nubi : 
>= 8 km
>= 3000ft
5 / 8 km
1000 / 3000 ft
1500m / 5 km
500 / 1000 ft
800 / 1500m
200 / 500 ft
< 800m
< 200 ft
Simboli :   Temporali  Nebbia  Neve Forte  Precipitazioni Forti  Vento > 20 kt
SIGMETs :   Varie  Temporali  Ghiacco  Turbolenza  Onda orograficha  Ceneri Vulcaniche






- Altitudine del aeroporto : 202 ft
- Codice IATA : LGW


EGKK - London Gatwick

ULTIMO METAR :
  • 170250Z 17001KT 5000 1600W BR BCFG FEW014 08/07 Q1017

METARs OBSOLETI :
  • 170220Z AUTO 26001KT 0200 R26L/P1500 FG FEW043/// 08/08 Q1017
  • 170150Z AUTO 08001KT 4800 BR FEW016/// BKN042/// 09/08 Q1018
  • 170120Z AUTO 00000KT 3600 BR FEW028/// BKN037/// BKN045/// 09/08 Q1018
  • 170050Z 10003KT 4500 BR FEW020 SCT040 09/09 Q1018
  • 170020Z VRB01KT 4000 BR SCT020 08/08 Q1018

TAF AMD TAF EGKK
Valido dal 17 a 03 ore il 18 a 06 ore UTC


170306Z 1703/1806 19004KT 6000 FEW012
TEMPO 1703/1708 4000 BR
PROB30 1703/1707 0300 FG BKN001
BECMG 1707/1710 9999 NSW
BECMG 1718/1721 8000
BECMG 1721/1724 4000 BR
PROB40 1722/1806 0300 FG VV///



MetMap, La meteo Aeronautica in un colpo d'occhio ! - Copyright ORBIFLY Dicembre 2007 - Disclaimer

ORBIFLY MET'MAP TEAM :

Programmazione e sviluppo : Alexandra Zaïnal
Concezione : Baudouin d'Aumeries
Aiuto per la programmazione : Marc-Olivier Méhu
Supporto tecnico e logistico : Manuel Goepfert
Aiuto per la traduzione : Arnaldo La Scala

Contatto : metmap@orbifly.com




FONTI E CREDITI :

   NOAA